Time;durP1;ratioP1;P1;durP2;ratioP2;P2;SDS_P1;SDS_P2;PMS_P1;PMS_P2;Temp;Humidity;BMP_temperature;BMP_pressure;BME280_temperature;BME280_humidity;BME280_pressure;Samples;Min_cycle;Max_cycle;Signal;HPM_P1;HPM_P2
2021/08/13 00:00:00;;;;;;;58.97;3.33;;;19.30;1.00;;;;;;5071237;28;20450;-73
2021/08/13 00:02:27;;;;;;;58.70;3.37;;;19.30;1.00;;;;;;5071166;28;20821;-73
2021/08/13 00:04:55;;;;;;;58.23;2.87;;;19.40;1.00;;;;;;5069090;28;20860;-72
2021/08/13 00:07:22;;;;;;;59.70;3.23;;;19.40;1.00;;;;;;5071249;28;20953;-72
2021/08/13 00:09:48;;;;;;;58.77;2.87;;;19.40;1.00;;;;;;5071349;28;20443;-73
2021/08/13 00:12:15;;;;;;;58.10;2.80;;;19.40;1.00;;;;;;5071255;28;20466;-73
2021/08/13 00:14:42;;;;;;;58.57;2.93;;;19.40;1.00;;;;;;5071265;28;20859;-73
2021/08/13 00:17:09;;;;;;;59.07;3.70;;;19.40;1.00;;;;;;5071062;28;20535;-73
2021/08/13 00:19:36;;;;;;;58.17;2.80;;;19.30;1.00;;;;;;5071345;28;20559;-72
2021/08/13 00:22:04;;;;;;;59.00;3.27;;;19.20;1.00;;;;;;5071057;28;20481;-73
2021/08/13 00:24:31;;;;;;;58.33;2.87;;;19.20;1.00;;;;;;5071255;28;20446;-72
2021/08/13 00:26:58;;;;;;;58.27;2.87;;;19.20;1.00;;;;;;5071398;28;20474;-73
2021/08/13 00:29:25;;;;;;;59.10;3.57;;;19.10;1.00;;;;;;5070952;28;20443;-73
2021/08/13 00:31:52;;;;;;;59.77;2.77;;;19.00;1.00;;;;;;5071124;28;20902;-73
2021/08/13 00:34:18;;;;;;;59.40;3.90;;;19.00;1.00;;;;;;5071023;28;20571;-73
2021/08/13 00:36:45;;;;;;;57.90;2.80;;;18.90;1.00;;;;;;5070348;28;20456;-73
2021/08/13 00:39:13;;;;;;;58.90;2.97;;;18.80;1.00;;;;;;5071453;28;20443;-73
2021/08/13 00:41:40;;;;;;;58.80;3.50;;;18.70;1.00;;;;;;5071041;28;20554;-73
2021/08/13 00:44:07;;;;;;;58.67;3.00;;;18.70;1.00;;;;;;5071227;28;20445;-73
2021/08/13 00:46:34;;;;;;;59.00;3.27;;;18.60;1.00;;;;;;5073584;28;20549;-73
2021/08/13 00:49:01;;;;;;;59.20;3.03;;;18.60;1.00;;;;;;5074908;28;20547;-73
2021/08/13 00:51:29;;;;;;;58.67;3.57;;;18.60;1.00;;;;;;5074528;28;20857;-73
2021/08/13 00:53:56;;;;;;;58.60;3.10;;;18.60;1.00;;;;;;5074750;28;20903;-73
2021/08/13 00:56:25;;;;;;;60.10;3.93;;;18.60;1.00;;;;;;5074539;28;20855;-73
2021/08/13 00:58:52;;;;;;;60.17;3.80;;;18.60;1.00;;;;;;5074459;28;20537;-75
2021/08/13 01:01:19;;;;;;;58.50;2.90;;;18.60;1.00;;;;;;5074370;28;20566;-74
2021/08/13 01:03:47;;;;;;;58.60;3.17;;;18.60;1.00;;;;;;5074603;28;20526;-74
2021/08/13 01:06:14;;;;;;;61.00;3.60;;;18.60;1.00;;;;;;5074436;28;20453;-74
2021/08/13 01:08:42;;;;;;;58.67;3.20;;;18.60;1.00;;;;;;5074534;28;20461;-74
2021/08/13 01:11:15;;;;;;;58.80;3.30;;;18.60;1.00;;;;;;5073900;28;20473;-74
2021/08/13 01:13:50;;;;;;;58.40;3.10;;;18.60;1.00;;;;;;5074517;28;20566;-74
2021/08/13 01:16:19;;;;;;;58.17;3.00;;;18.60;1.00;;;;;;5074227;28;20965;-74
2021/08/13 01:18:52;;;;;;;59.07;3.37;;;18.60;1.00;;;;;;5074321;28;20482;-74
2021/08/13 01:21:37;;;;;;;58.90;3.20;;;18.60;1.00;;;;;;5073757;28;20474;-74
2021/08/13 01:24:11;;;;;;;58.40;2.80;;;18.60;1.00;;;;;;5073980;28;20451;-75
2021/08/13 01:26:44;;;;;;;58.60;3.27;;;18.60;1.00;;;;;;5074126;28;20456;-73
2021/08/13 01:29:24;;;;;;;58.57;3.20;;;18.50;1.00;;;;;;5073949;28;20461;-73
2021/08/13 01:32:10;;;;;;;60.03;3.30;;;18.50;1.00;;;;;;5074034;28;20477;-73
2021/08/13 01:34:41;;;;;;;58.77;2.80;;;18.50;1.00;;;;;;5073992;28;20580;-73
2021/08/13 01:37:08;;;;;;;58.50;2.60;;;18.50;1.00;;;;;;5074032;28;20469;-73
2021/08/13 01:39:36;;;;;;;59.77;3.20;;;18.50;1.00;;;;;;5073735;28;20732;-72
2021/08/13 01:42:05;;;;;;;58.90;3.33;;;18.50;1.00;;;;;;5073678;28;20467;-72
2021/08/13 01:44:33;;;;;;;58.50;3.20;;;18.50;1.00;;;;;;5072377;28;20541;-72
2021/08/13 01:47:00;;;;;;;59.20;3.40;;;18.50;1.00;;;;;;5073869;28;20831;-72
2021/08/13 01:49:29;;;;;;;58.67;2.90;;;18.50;1.00;;;;;;5072129;28;21066;-73
2021/08/13 01:51:58;;;;;;;59.47;3.70;;;18.50;1.00;;;;;;5073622;28;20924;-72
2021/08/13 01:54:26;;;;;;;58.40;3.10;;;18.40;1.00;;;;;;5073493;28;21025;-72
2021/08/13 01:56:55;;;;;;;58.77;2.77;;;18.40;1.00;;;;;;5073579;28;20538;-72
2021/08/13 01:59:22;;;;;;;58.57;3.20;;;18.40;1.00;;;;;;5073133;28;20565;-72
2021/08/13 02:01:49;;;;;;;58.60;2.80;;;18.40;1.00;;;;;;5073508;28;20475;-72
2021/08/13 02:04:19;;;;;;;58.90;3.50;;;18.40;1.00;;;;;;5073555;28;20469;-72
2021/08/13 02:06:46;;;;;;;59.07;3.20;;;18.50;1.00;;;;;;5073156;28;20459;-72
2021/08/13 02:09:16;;;;;;;58.27;2.77;;;18.50;1.00;;;;;;5072917;28;20541;-72
2021/08/13 02:11:43;;;;;;;58.47;3.13;;;18.50;1.00;;;;;;5073384;28;20899;-72
2021/08/13 02:14:10;;;;;;;58.07;2.60;;;18.50;1.00;;;;;;5073140;28;20478;-72
2021/08/13 02:16:40;;;;;;;58.27;3.07;;;18.40;1.00;;;;;;5073002;28;20458;-72
2021/08/13 02:19:12;;;;;;;58.57;3.47;;;18.40;1.00;;;;;;5072936;28;20992;-72
2021/08/13 02:21:44;;;;;;;58.27;2.80;;;18.50;1.00;;;;;;5072747;28;20575;-72
2021/08/13 02:24:11;;;;;;;59.50;4.40;;;18.50;1.00;;;;;;5073265;28;20446;-72
2021/08/13 02:26:40;;;;;;;59.13;3.73;;;18.50;1.00;;;;;;5073048;28;20575;-72
2021/08/13 02:29:07;;;;;;;58.43;2.77;;;18.50;1.00;;;;;;5072629;28;20453;-72
2021/08/13 02:31:34;;;;;;;58.30;2.80;;;18.50;1.00;;;;;;5072726;28;20998;-73
2021/08/13 02:34:01;;;;;;;59.20;3.20;;;18.50;1.00;;;;;;5072662;28;20463;-72
2021/08/13 02:36:35;;;;;;;58.47;2.93;;;18.50;1.00;;;;;;5072970;28;20474;-72
2021/08/13 02:39:04;;;;;;;58.70;3.10;;;18.50;1.00;;;;;;5072695;28;20447;-72
2021/08/13 02:41:33;;;;;;;58.17;2.80;;;18.50;1.00;;;;;;5072869;28;20471;-73
2021/08/13 02:44:04;;;;;;;59.33;4.40;;;18.60;1.00;;;;;;5072872;28;20454;-72
2021/08/13 02:46:36;;;;;;;58.60;3.20;;;18.60;1.00;;;;;;5072280;28;20535;-73
2021/08/13 02:49:06;;;;;;;58.43;2.90;;;18.60;1.00;;;;;;5072411;28;20486;-72
2021/08/13 02:51:35;;;;;;;58.87;3.33;;;18.60;1.00;;;;;;5072691;28;20566;-72
2021/08/13 02:54:02;;;;;;;57.97;2.57;;;18.60;1.00;;;;;;5072375;28;20451;-73
2021/08/13 02:56:33;;;;;;;58.40;2.93;;;18.60;1.00;;;;;;5072192;28;20457;-73
2021/08/13 02:59:05;;;;;;;58.50;2.80;;;18.60;1.00;;;;;;5072628;28;20809;-73
2021/08/13 03:01:35;;;;;;;58.77;3.70;;;18.50;1.00;;;;;;5072215;28;20463;-72
2021/08/13 03:04:03;;;;;;;57.87;3.10;;;18.50;1.00;;;;;;5072320;28;20534;-72
2021/08/13 03:06:35;;;;;;;59.77;3.07;;;18.50;1.00;;;;;;5072328;28;20822;-73
2021/08/13 03:09:03;;;;;;;58.53;2.80;;;18.40;1.00;;;;;;5072000;28;20453;-72
2021/08/13 03:11:31;;;;;;;58.77;3.10;;;18.50;1.00;;;;;;5071804;28;20571;-73
2021/08/13 03:13:59;;;;;;;60.73;3.80;;;18.40;1.00;;;;;;5072295;28;20900;-73
2021/08/13 03:16:27;;;;;;;61.17;6.13;;;18.50;1.00;;;;;;5072116;28;20486;-73
2021/08/13 03:18:56;;;;;;;58.60;3.57;;;18.50;1.00;;;;;;5071921;28;20487;-73
2021/08/13 03:21:23;;;;;;;58.43;2.90;;;18.50;1.00;;;;;;5071716;28;20478;-73
2021/08/13 03:23:50;;;;;;;59.33;3.00;;;18.60;1.00;;;;;;5072129;28;20451;-73
2021/08/13 03:26:18;;;;;;;58.57;3.10;;;18.70;1.00;;;;;;5071936;28;20549;-73
2021/08/13 03:28:44;;;;;;;58.67;3.20;;;18.70;1.00;;;;;;5071822;28;20937;-73
2021/08/13 03:31:36;;;;;;;59.33;3.60;;;18.70;1.00;;;;;;5071752;28;20467;-73
2021/08/13 03:34:04;;;;;;;59.00;2.77;;;18.80;1.00;;;;;;5072162;28;20533;-73
2021/08/13 03:36:31;;;;;;;58.60;3.33;;;18.80;1.00;;;;;;5071734;28;20449;-73
2021/08/13 03:38:58;;;;;;;58.57;3.10;;;18.90;1.00;;;;;;5071959;28;20530;-73
2021/08/13 03:41:25;;;;;;;59.17;3.67;;;18.80;1.00;;;;;;5071794;28;20896;-73
2021/08/13 03:43:52;;;;;;;58.10;2.97;;;18.90;1.00;;;;;;5072045;28;20453;-73
2021/08/13 03:46:19;;;;;;;58.60;3.17;;;18.90;1.00;;;;;;5071675;28;20450;-73
2021/08/13 03:48:47;;;;;;;57.87;2.90;;;18.90;1.00;;;;;;5071997;28;20487;-73
2021/08/13 03:51:14;;;;;;;58.17;3.13;;;18.90;1.00;;;;;;5071548;28;20467;-73
2021/08/13 03:53:41;;;;;;;59.30;3.23;;;18.90;1.00;;;;;;5071872;28;20530;-73
2021/08/13 03:56:08;;;;;;;58.77;3.37;;;18.90;1.00;;;;;;5071454;28;20574;-73
2021/08/13 03:58:35;;;;;;;59.77;3.70;;;18.90;1.00;;;;;;5071823;28;20637;-73
2021/08/13 04:01:01;;;;;;;59.53;3.43;;;19.00;1.00;;;;;;5071367;28;20558;-73
2021/08/13 04:03:28;;;;;;;58.60;2.90;;;18.90;1.00;;;;;;5071569;28;20539;-73
2021/08/13 04:05:56;;;;;;;58.50;3.23;;;19.00;1.00;;;;;;5071625;28;20539;-73
2021/08/13 04:08:23;;;;;;;58.70;3.93;;;19.00;1.00;;;;;;5071662;28;20447;-73
2021/08/13 04:10:50;;;;;;;59.13;4.07;;;19.00;1.00;;;;;;5071410;28;21062;-73
2021/08/13 04:13:17;;;;;;;58.80;3.07;;;19.00;1.00;;;;;;5071573;28;20558;-73
2021/08/13 04:15:44;;;;;;;59.00;3.43;;;19.00;1.00;;;;;;5071574;28;20512;-73
2021/08/13 04:18:12;;;;;;;58.87;3.70;;;19.00;1.00;;;;;;5071377;28;20473;-73
2021/08/13 04:20:38;;;;;;;58.50;2.70;;;19.00;1.00;;;;;;5072231;28;20459;-73
2021/08/13 04:23:07;;;;;;;58.47;3.13;;;19.00;1.00;;;;;;5075311;28;20455;-73
2021/08/13 04:25:34;;;;;;;58.00;2.70;;;19.00;1.00;;;;;;5075840;28;20443;-73
2021/08/13 04:28:00;;;;;;;58.47;3.20;;;18.90;1.00;;;;;;5075259;28;20443;-73
2021/08/13 04:30:27;;;;;;;58.60;2.60;;;18.90;1.00;;;;;;5074763;28;20478;-73
2021/08/13 04:32:54;;;;;;;58.67;3.10;;;18.90;1.00;;;;;;5075007;28;20821;-73
2021/08/13 04:35:21;;;;;;;58.80;3.10;;;18.80;1.00;;;;;;5075075;28;20479;-73
2021/08/13 04:37:48;;;;;;;57.73;2.57;;;18.80;1.00;;;;;;5075072;28;20838;-73
2021/08/13 04:40:16;;;;;;;58.83;3.63;;;18.80;1.00;;;;;;5074681;28;20954;-73
2021/08/13 04:42:43;;;;;;;58.13;3.10;;;18.80;1.00;;;;;;5074936;28;20545;-73
2021/08/13 04:45:11;;;;;;;59.57;3.20;;;18.80;1.00;;;;;;5074969;28;20449;-73
2021/08/13 04:47:37;;;;;;;58.17;2.90;;;18.90;1.00;;;;;;5075001;28;20453;-73
2021/08/13 04:50:05;;;;;;;58.17;2.63;;;18.90;1.00;;;;;;5074628;28;20446;-73
2021/08/13 04:52:32;;;;;;;58.70;2.70;;;18.90;1.00;;;;;;5074688;28;20498;-73
2021/08/13 04:54:59;;;;;;;58.37;3.07;;;18.90;1.00;;;;;;5074594;28;20579;-72
2021/08/13 04:57:27;;;;;;;58.50;2.90;;;18.90;1.00;;;;;;5074630;28;20446;-73
2021/08/13 04:59:54;;;;;;;59.37;3.50;;;18.90;1.00;;;;;;5074419;28;20451;-73
2021/08/13 05:02:22;;;;;;;59.20;4.27;;;18.90;1.00;;;;;;5074446;28;20499;-73
2021/08/13 05:04:49;;;;;;;58.30;3.40;;;18.90;1.00;;;;;;5074610;28;20822;-73
2021/08/13 05:07:16;;;;;;;59.17;3.23;;;18.90;1.00;;;;;;5074576;28;20539;-73
2021/08/13 05:09:43;;;;;;;58.50;2.60;;;18.90;1.00;;;;;;5074396;28;20443;-73
2021/08/13 05:12:10;;;;;;;59.30;3.40;;;18.90;1.00;;;;;;5074432;28;20525;-73
2021/08/13 05:14:38;;;;;;;58.27;2.90;;;18.90;1.00;;;;;;5074094;28;20458;-73
2021/08/13 05:17:05;;;;;;;58.60;2.67;;;18.90;1.00;;;;;;5074474;28;20531;-73
2021/08/13 05:19:31;;;;;;;58.63;3.70;;;18.90;1.00;;;;;;5074306;28;20537;-73
2021/08/13 05:21:58;;;;;;;58.70;3.77;;;18.90;1.00;;;;;;5073945;28;20525;-73
2021/08/13 05:24:25;;;;;;;59.53;4.33;;;18.90;1.00;;;;;;5074359;28;20539;-73
2021/08/13 05:26:52;;;;;;;59.93;3.20;;;18.90;1.00;;;;;;5074009;28;20522;-73
2021/08/13 05:29:19;;;;;;;58.37;3.30;;;18.90;1.00;;;;;;5074188;28;20888;-73
2021/08/13 05:31:47;;;;;;;60.33;5.37;;;18.90;1.00;;;;;;5073883;28;20471;-73
2021/08/13 05:34:14;;;;;;;59.07;3.63;;;18.90;1.00;;;;;;5074278;28;20534;-72
2021/08/13 05:36:40;;;;;;;58.17;3.23;;;19.00;1.00;;;;;;5074153;28;20850;-72
2021/08/13 05:39:07;;;;;;;59.40;3.77;;;19.10;1.00;;;;;;5073747;28;20630;-72
2021/08/13 05:41:34;;;;;;;57.87;2.80;;;19.10;1.00;;;;;;5073777;28;20474;-72
2021/08/13 05:44:01;;;;;;;58.70;2.77;;;19.20;1.00;;;;;;5074273;28;20534;-72
2021/08/13 05:46:28;;;;;;;58.40;3.00;;;19.30;1.00;;;;;;5073971;28;20479;-72
2021/08/13 05:48:57;;;;;;;58.40;3.20;;;19.40;1.00;;;;;;5073862;28;20986;-72
2021/08/13 05:51:24;;;;;;;58.20;3.27;;;19.60;1.00;;;;;;5073427;28;20608;-71
2021/08/13 05:53:51;;;;;;;58.50;3.10;;;19.70;1.00;;;;;;5073772;28;20973;-71
2021/08/13 05:56:18;;;;;;;58.57;2.80;;;19.70;1.00;;;;;;5073513;28;20566;-71
2021/08/13 05:58:46;;;;;;;58.27;2.80;;;19.70;1.00;;;;;;5073952;28;20476;-71
2021/08/13 06:01:13;;;;;;;60.07;3.37;;;19.70;1.00;;;;;;5073398;28;20834;-71
2021/08/13 06:03:39;;;;;;;59.43;3.47;;;19.70;1.00;;;;;;5073859;28;20452;-71
2021/08/13 06:06:08;;;;;;;57.87;3.03;;;19.70;1.00;;;;;;5073425;28;20493;-71
2021/08/13 06:08:35;;;;;;;58.67;2.70;;;19.70;1.00;;;;;;5073325;28;20543;-71
2021/08/13 06:11:01;;;;;;;58.70;3.30;;;19.70;1.00;;;;;;5073447;28;20515;-71
2021/08/13 06:13:28;;;;;;;58.03;2.93;;;19.70;1.00;;;;;;5073464;28;20755;-71
2021/08/13 06:15:55;;;;;;;58.40;3.17;;;19.80;1.00;;;;;;5073222;28;20480;-71
2021/08/13 06:18:22;;;;;;;58.23;2.53;;;19.80;1.00;;;;;;5073304;28;20954;-71
2021/08/13 06:20:49;;;;;;;58.40;3.43;;;19.80;1.00;;;;;;5072638;28;20513;-71
2021/08/13 06:23:17;;;;;;;58.43;2.73;;;19.80;1.00;;;;;;5073468;28;20479;-71
2021/08/13 06:25:44;;;;;;;58.80;3.07;;;19.80;1.00;;;;;;5073022;28;20445;-70
2021/08/13 06:28:13;;;;;;;60.50;3.63;;;19.90;1.00;;;;;;5073048;28;20536;-70
2021/08/13 06:30:39;;;;;;;58.60;3.97;;;19.90;1.00;;;;;;5072726;28;20903;-70
2021/08/13 06:33:06;;;;;;;58.10;2.77;;;20.00;1.00;;;;;;5072985;28;20449;-70
2021/08/13 06:35:33;;;;;;;58.40;2.80;;;20.00;1.00;;;;;;5072597;28;20568;-70
2021/08/13 06:38:00;;;;;;;58.70;2.93;;;20.10;1.00;;;;;;5072650;28;20495;-70
2021/08/13 06:40:31;;;;;;;58.07;2.80;;;20.30;1.00;;;;;;5072771;28;20509;-70
2021/08/13 06:42:58;;;;;;;58.50;3.00;;;20.40;1.00;;;;;;5071957;28;20534;-70
2021/08/13 06:45:25;;;;;;;59.57;3.33;;;20.50;1.00;;;;;;5072815;28;20536;-70
2021/08/13 06:47:53;;;;;;;58.20;2.80;;;20.50;1.00;;;;;;5072658;28;20522;-70
2021/08/13 06:50:20;;;;;;;58.20;2.93;;;20.60;1.00;;;;;;5071836;28;20475;-69
2021/08/13 06:52:46;;;;;;;58.87;3.33;;;20.70;1.00;;;;;;5072219;28;21048;-70
2021/08/13 06:55:13;;;;;;;58.70;3.23;;;20.90;1.00;;;;;;5072503;28;20840;-70
2021/08/13 06:57:42;;;;;;;59.97;3.60;;;21.10;1.00;;;;;;5072470;28;20467;-70
2021/08/13 07:00:10;;;;;;;58.13;2.90;;;21.30;1.00;;;;;;5072174;28;20453;-70
2021/08/13 07:02:37;;;;;;;57.87;2.83;;;21.30;1.00;;;;;;5071564;28;20547;-70
2021/08/13 07:05:05;;;;;;;58.23;2.90;;;21.40;1.00;;;;;;5072188;28;20817;-70
2021/08/13 07:07:33;;;;;;;58.80;3.40;;;21.50;1.00;;;;;;5072168;28;20530;-70
2021/08/13 07:10:03;;;;;;;58.17;2.50;;;21.50;1.00;;;;;;5072029;28;20469;-70
2021/08/13 07:12:30;;;;;;;58.07;2.60;;;21.50;1.00;;;;;;5072043;28;20476;-70
2021/08/13 07:14:58;;;;;;;57.97;2.70;;;21.60;1.00;;;;;;5072129;28;20504;-70
2021/08/13 07:17:25;;;;;;;59.70;4.20;;;21.70;1.00;;;;;;5071806;28;20485;-70
2021/08/13 07:19:52;;;;;;;59.10;3.50;;;21.80;1.00;;;;;;5071916;28;20482;-70
2021/08/13 07:22:19;;;;;;;59.10;4.37;;;22.00;1.00;;;;;;5071897;28;20489;-70
2021/08/13 07:24:46;;;;;;;58.27;2.90;;;22.20;1.00;;;;;;5072041;28;20979;-70
2021/08/13 07:27:12;;;;;;;58.60;3.47;;;22.40;1.00;;;;;;5071861;28;20543;-70
2021/08/13 07:29:39;;;;;;;59.20;3.73;;;22.70;1.00;;;;;;5071849;28;20480;-70
2021/08/13 07:32:08;;;;;;;58.40;3.33;;;22.90;1.00;;;;;;5072243;28;20549;-70
2021/08/13 07:34:35;;;;;;;57.87;3.20;;;23.10;1.00;;;;;;5071960;28;20451;-70
2021/08/13 07:37:01;;;;;;;59.00;3.40;;;23.30;1.00;;;;;;5072031;28;20508;-70
2021/08/13 07:39:28;;;;;;;58.50;2.90;;;23.40;1.00;;;;;;5071910;28;20448;-70
2021/08/13 07:41:55;;;;;;;58.47;3.33;;;23.50;1.00;;;;;;5072071;28;20549;-70
2021/08/13 07:44:22;;;;;;;59.60;3.47;;;23.50;1.00;;;;;;5071841;28;20989;-70
2021/08/13 07:46:49;;;;;;;58.73;2.97;;;23.50;1.00;;;;;;5071999;28;20477;-71
2021/08/13 07:49:17;;;;;;;59.20;3.90;;;23.50;1.00;;;;;;5071752;28;20490;-71
2021/08/13 07:51:44;;;;;;;58.50;3.20;;;23.50;1.00;;;;;;5071817;28;20465;-71
2021/08/13 07:54:11;;;;;;;59.40;4.07;;;23.50;1.00;;;;;;5072427;28;20478;-71
2021/08/13 07:56:38;;;;;;;59.60;3.77;;;23.60;1.00;;;;;;5075878;28;20480;-71
2021/08/13 07:59:07;;;;;;;59.47;3.43;;;23.60;1.00;;;;;;5075462;28;21012;-71
2021/08/13 08:01:34;;;;;;;58.97;3.60;;;23.60;1.00;;;;;;5075690;28;20508;-71
2021/08/13 08:04:01;;;;;;;59.17;3.43;;;23.60;1.00;;;;;;5075982;28;20446;-71
2021/08/13 08:06:31;;;;;;;58.30;2.80;;;23.70;1.00;;;;;;5075764;28;20443;-71
2021/08/13 08:08:58;;;;;;;59.07;3.63;;;23.80;1.00;;;;;;5075526;28;20447;-71
2021/08/13 08:11:24;;;;;;;58.60;2.80;;;23.90;1.00;;;;;;5075232;28;20560;-71
2021/08/13 08:13:52;;;;;;;58.20;2.87;;;24.00;1.00;;;;;;5075450;28;21004;-71
2021/08/13 08:16:18;;;;;;;58.30;3.13;;;24.00;1.00;;;;;;5075654;28;20825;-71
2021/08/13 08:18:45;;;;;;;58.60;3.37;;;24.10;1.00;;;;;;5075543;28;20447;-71
2021/08/13 08:21:12;;;;;;;58.27;2.80;;;24.20;1.00;;;;;;5074912;28;21029;-71
2021/08/13 08:23:40;;;;;;;58.70;2.80;;;24.30;1.00;;;;;;5075300;28;20491;-71
2021/08/13 08:26:07;;;;;;;58.20;2.60;;;24.50;1.00;;;;;;5075000;28;20561;-71
2021/08/13 08:28:34;;;;;;;61.30;3.63;;;24.70;1.00;;;;;;5075393;28;20450;-71
2021/08/13 08:31:01;;;;;;;60.27;3.67;;;24.90;1.00;;;;;;5074940;28;20851;-71
2021/08/13 08:33:27;;;;;;;59.17;3.37;;;25.10;1.00;;;;;;5075113;28;20458;-71
2021/08/13 08:35:54;;;;;;;58.60;2.57;;;25.40;1.00;;;;;;5074916;28;20556;-71
2021/08/13 08:38:21;;;;;;;58.10;2.77;;;25.60;1.00;;;;;;5075010;28;20548;-71
2021/08/13 08:40:49;;;;;;;58.87;3.10;;;25.70;1.00;;;;;;5074556;28;20499;-71
2021/08/13 08:43:16;;;;;;;59.57;3.00;;;25.80;1.00;;;;;;5075218;28;20830;-71
2021/08/13 08:45:43;;;;;;;59.00;3.33;;;26.00;1.00;;;;;;5075139;28;20480;-71
2021/08/13 08:48:11;;;;;;;58.40;2.80;;;26.10;1.00;;;;;;5074963;28;20445;-71
2021/08/13 08:50:40;;;;;;;58.37;2.87;;;26.10;1.00;;;;;;5074932;28;20545;-71
2021/08/13 08:53:10;;;;;;;58.90;4.20;;;26.20;1.00;;;;;;5074744;28;20454;-71
2021/08/13 08:55:38;;;;;;;58.97;3.53;;;26.20;1.00;;;;;;5074964;28;20449;-71
2021/08/13 08:58:07;;;;;;;58.17;2.80;;;26.20;1.00;;;;;;5074745;28;20485;-71
2021/08/13 09:00:34;;;;;;;59.43;2.80;;;26.30;1.00;;;;;;5074415;28;20533;-71
2021/08/13 09:03:01;;;;;;;58.50;2.80;;;26.30;1.00;;;;;;5074549;28;20548;-71
2021/08/13 09:05:28;;;;;;;59.50;3.43;;;26.30;1.00;;;;;;5074388;28;20932;-71
2021/08/13 09:07:55;;;;;;;59.43;3.10;;;26.40;1.00;;;;;;5073757;28;20897;-71
2021/08/13 09:10:22;;;;;;;59.03;3.43;;;26.50;1.00;;;;;;5074368;28;20550;-71
2021/08/13 09:12:52;;;;;;;58.50;3.10;;;26.60;1.00;;;;;;5074646;28;20533;-71
2021/08/13 09:15:31;;;;;;;59.53;3.73;;;26.60;1.00;;;;;;5074604;28;20451;-71
2021/08/13 09:18:15;;;;;;;59.00;2.87;;;26.70;1.00;;;;;;5074312;28;20895;-71
2021/08/13 09:20:43;;;;;;;58.40;2.73;;;26.90;1.00;;;;;;5074022;28;20515;-71
2021/08/13 09:23:10;;;;;;;59.07;2.97;;;27.10;1.00;;;;;;5074430;28;20530;-71
2021/08/13 09:25:37;;;;;;;58.57;3.03;;;27.20;1.00;;;;;;5074335;28;20536;-71
2021/08/13 09:28:04;;;;;;;58.00;2.43;;;27.30;1.00;;;;;;5074466;28;20535;-71
2021/08/13 09:30:33;;;;;;;58.10;2.40;;;27.40;1.00;;;;;;5073992;28;20454;-71
2021/08/13 09:33:03;;;;;;;58.07;3.10;;;27.60;1.00;;;;;;5074244;28;20449;-71
2021/08/13 09:35:35;;;;;;;59.07;3.00;;;27.80;1.00;;;;;;5074467;28;20541;-71
2021/08/13 09:38:03;;;;;;;58.47;2.73;;;28.00;1.00;;;;;;5073951;28;20941;-71
2021/08/13 09:40:37;;;;;;;58.50;2.73;;;28.10;1.00;;;;;;5073994;28;20474;-71
2021/08/13 09:43:04;;;;;;;58.40;2.83;;;28.30;1.00;;;;;;5073996;28;20855;-69
2021/08/13 09:45:32;;;;;;;58.87;3.20;;;28.50;1.00;;;;;;5074076;28;20447;-69
2021/08/13 09:47:59;;;;;;;58.60;2.30;;;28.70;1.00;;;;;;5073741;28;20483;-69
2021/08/13 09:50:38;;;;;;;58.17;2.63;;;28.90;1.00;;;;;;5073429;28;21042;-69
2021/08/13 09:53:09;;;;;;;58.07;2.60;;;29.20;1.00;;;;;;5073561;28;21011;-69
2021/08/13 09:55:36;;;;;;;58.40;2.87;;;29.40;1.00;;;;;;5073557;28;20829;-69
2021/08/13 09:58:05;;;;;;;57.63;2.20;;;29.70;1.00;;;;;;5073444;28;20515;-69
2021/08/13 10:00:43;;;;;;;58.20;2.37;;;30.00;1.00;;;;;;5073413;28;20809;-69
2021/08/13 10:03:10;;;;;;;58.30;2.80;;;30.30;1.00;;;;;;5073548;28;20447;-69
2021/08/13 10:05:37;;;;;;;58.90;3.83;;;30.50;1.00;;;;;;5073399;28;20442;-69
2021/08/13 10:08:06;;;;;;;58.00;2.60;;;30.70;1.00;;;;;;5073259;28;20448;-69
2021/08/13 10:10:35;;;;;;;57.70;2.73;;;30.80;1.00;;;;;;5073090;28;20533;-71
2021/08/13 10:13:03;;;;;;;58.90;3.17;;;31.10;1.00;;;;;;5073457;28;20529;-71
2021/08/13 10:15:34;;;;;;;59.87;2.70;;;31.30;1.00;;;;;;5073266;28;20450;-71
2021/08/13 10:18:03;;;;;;;58.20;2.90;;;31.40;1.00;;;;;;5071995;28;20510;-71
2021/08/13 10:20:34;;;;;;;58.40;3.30;;;31.70;1.00;;;;;;5072535;28;20455;-71
2021/08/13 10:23:01;;;;;;;58.77;2.93;;;32.20;1.00;;;;;;5072980;28;20625;-71
2021/08/13 10:25:28;;;;;;;58.77;2.90;;;32.90;1.00;;;;;;5072966;28;20943;-71
2021/08/13 10:27:56;;;;;;;57.67;2.40;;;33.60;1.00;;;;;;5072884;28;20448;-71
2021/08/13 10:30:24;;;;;;;57.60;2.77;;;34.20;1.00;;;;;;5072341;28;20543;-68
2021/08/13 10:32:56;;;;;;;57.80;2.90;;;34.90;1.00;;;;;;5072776;28;20447;-68
2021/08/13 10:35:28;;;;;;;57.27;2.60;;;35.30;1.00;;;;;;5072698;28;20882;-68
2021/08/13 10:37:55;;;;;;;57.87;2.73;;;35.50;1.00;;;;;;5072802;28;20515;-69
2021/08/13 10:40:22;;;;;;;58.10;3.00;;;35.80;1.00;;;;;;5072472;28;20877;-69
2021/08/13 10:42:51;;;;;;;57.57;2.50;;;36.10;1.00;;;;;;5072541;28;20944;-69
2021/08/13 10:45:22;;;;;;;57.27;2.50;;;36.40;1.00;;;;;;5072481;28;20467;-69
2021/08/13 10:47:57;;;;;;;58.40;2.93;;;36.90;1.00;;;;;;5072431;28;20501;-70
2021/08/13 10:50:24;;;;;;;57.67;2.97;;;37.20;1.00;;;;;;5072452;28;20750;-70
2021/08/13 10:52:51;;;;;;;57.27;2.70;;;37.50;1.00;;;;;;5072545;28;20450;-70
2021/08/13 10:55:41;;;;;;;57.77;3.30;;;37.80;1.00;;;;;;5072403;28;21137;-70
2021/08/13 10:58:08;;;;;;;57.83;3.23;;;38.10;1.00;;;;;;5072140;28;20475;-70
2021/08/13 11:01:06;;;;;;;57.07;2.80;;;38.40;1.00;;;;;;5071934;28;20542;-70
2021/08/13 11:03:35;;;;;;;57.57;3.13;;;38.70;1.00;;;;;;5071674;28;20521;-70
2021/08/13 11:06:02;;;;;;;57.00;2.50;;;39.00;1.00;;;;;;5072242;28;20440;-69
2021/08/13 11:09:01;;;;;;;58.20;2.80;;;39.40;1.00;;;;;;5072119;28;21009;-70
2021/08/13 11:12:07;;;;;;;56.57;2.60;;;40.10;1.00;;;;;;5059931;28;20487;-70
2021/08/13 11:14:35;;;;;;;58.07;2.80;;;40.60;1.00;;;;;;5072251;28;20517;-70
2021/08/13 11:17:04;;;;;;;56.83;2.30;;;41.10;1.00;;;;;;5071831;28;20489;-70
2021/08/13 11:19:58;;;;;;;57.00;2.57;;;41.50;1.00;;;;;;5072040;28;20424;-70
2021/08/13 11:22:29;;;;;;;57.70;2.77;;;42.00;1.00;;;;;;5072403;28;20482;-70
2021/08/13 11:24:56;;;;;;;57.77;3.27;;;42.40;1.00;;;;;;5071908;28;20522;-70
2021/08/13 11:27:23;;;;;;;57.20;3.00;;;42.80;1.00;;;;;;5071670;28;20586;-70
2021/08/13 11:29:50;;;;;;;56.70;3.00;;;43.00;1.00;;;;;;5071395;28;20445;-69
2021/08/13 11:32:29;;;;;;;56.57;2.40;;;42.90;1.00;;;;;;5071936;28;20468;-69
2021/08/13 11:35:01;;;;;;;56.87;2.27;;;42.80;1.00;;;;;;5071942;28;20526;-69
2021/08/13 11:37:50;;;;;;;56.17;2.27;;;43.00;1.00;;;;;;5071783;28;20482;-70
2021/08/13 11:40:41;;;;;;;56.33;2.50;;;43.10;1.00;;;;;;5071729;28;20546;-69
2021/08/13 11:43:09;;;;;;;56.60;2.50;;;43.40;1.00;;;;;;5068531;28;20504;-69
2021/08/13 11:45:37;;;;;;;56.47;2.77;;;43.70;1.00;;;;;;5071722;28;20584;-69
2021/08/13 11:48:05;;;;;;;56.33;2.67;;;43.90;1.00;;;;;;5071531;28;20931;-70
2021/08/13 11:50:34;;;;;;;56.53;2.90;;;44.30;1.00;;;;;;5071675;28;20535;-70
2021/08/13 11:53:01;;;;;;;56.33;2.77;;;44.30;1.00;;;;;;5071684;28;20983;-70
2021/08/13 11:55:29;;;;;;;56.30;2.60;;;44.50;1.00;;;;;;5071596;28;20479;-70
2021/08/13 11:57:58;;;;;;;57.57;3.40;;;44.70;1.00;;;;;;5071556;28;20487;-70
2021/08/13 12:00:26;;;;;;;56.57;2.53;;;44.80;1.00;;;;;;5071319;28;20451;-70
2021/08/13 12:02:58;;;;;;;56.30;2.60;;;44.80;1.00;;;;;;5071511;28;20634;-70
2021/08/13 12:05:29;;;;;;;55.97;2.60;;;44.70;1.00;;;;;;5071549;28;20454;-69
2021/08/13 12:08:02;;;;;;;57.40;2.60;;;44.70;1.00;;;;;;5071690;28;20549;-69
2021/08/13 12:10:30;;;;;;;56.50;2.80;;;44.80;1.00;;;;;;5071238;28;20815;-69
2021/08/13 12:12:57;;;;;;;57.30;3.00;;;44.80;1.00;;;;;;5071438;28;20473;-70
2021/08/13 12:15:29;;;;;;;56.90;2.50;;;44.90;1.00;;;;;;5071317;28;20450;-70
2021/08/13 12:17:56;;;;;;;57.60;3.30;;;45.20;1.00;;;;;;5071401;28;20483;-70
2021/08/13 12:20:23;;;;;;;57.53;2.40;;;45.50;1.00;;;;;;5070886;28;20449;-70
2021/08/13 12:22:58;;;;;;;58.13;2.87;;;45.60;1.00;;;;;;5071848;28;20534;-70
2021/08/13 12:25:32;;;;;;;56.53;2.33;;;45.40;1.00;;;;;;5071388;28;20826;-69
2021/08/13 12:27:59;;;;;;;55.87;2.37;;;45.20;1.00;;;;;;5071144;28;20955;-69
2021/08/13 12:30:26;;;;;;;56.70;2.50;;;45.10;1.00;;;;;;5071155;28;20539;-69
2021/08/13 12:32:53;;;;;;;57.00;2.93;;;45.00;1.00;;;;;;5071374;28;20817;-69
2021/08/13 12:35:22;;;;;;;56.80;2.60;;;44.90;1.00;;;;;;5071482;28;20814;-69
2021/08/13 12:37:50;;;;;;;56.17;2.30;;;45.00;1.00;;;;;;5071129;28;20525;-69
2021/08/13 12:40:18;;;;;;;56.90;2.93;;;45.10;1.00;;;;;;5070726;28;20943;-69
2021/08/13 12:42:50;;;;;;;58.40;3.17;;;45.10;1.00;;;;;;5074073;28;20546;-69
2021/08/13 12:45:18;;;;;;;56.77;2.43;;;45.00;1.00;;;;;;5073690;28;20555;-69
2021/08/13 12:47:48;;;;;;;56.20;2.60;;;45.00;1.00;;;;;;5073421;28;20443;-69
2021/08/13 12:50:16;;;;;;;56.67;2.77;;;44.90;1.00;;;;;;5074242;28;20451;-69
2021/08/13 12:53:01;;;;;;;56.93;2.50;;;44.90;1.00;;;;;;5074616;28;20442;-69
2021/08/13 12:55:40;;;;;;;56.97;2.97;;;44.90;1.00;;;;;;5074751;28;20486;-70